createdAt,value
2019-02-26T00:01:04.315Z,6.00
2019-02-26T00:03:36.025Z,6.45
2019-02-26T00:06:07.827Z,7.70
2019-02-26T00:08:39.461Z,5.80
2019-02-26T00:11:11.494Z,5.97
2019-02-26T00:13:43.345Z,6.97
2019-02-26T00:16:18.379Z,7.17
2019-02-26T00:18:50.344Z,6.25
2019-02-26T00:21:22.722Z,6.58
2019-02-26T00:26:26.328Z,6.50
2019-02-26T00:28:59.687Z,5.97
2019-02-26T00:34:02.326Z,6.25
2019-02-26T00:36:35.922Z,5.78
2019-02-26T00:41:40.415Z,6.40
2019-02-26T00:44:12.322Z,6.50
2019-02-26T00:46:44.390Z,5.53
2019-02-26T00:49:16.068Z,7.50
2019-02-26T00:51:48.389Z,6.08
2019-02-26T00:54:24.301Z,7.17
2019-02-26T00:56:57.023Z,6.47
2019-02-26T00:59:28.313Z,6.67
2019-02-26T01:01:59.864Z,5.92
2019-02-26T01:04:31.661Z,6.60
2019-02-26T01:07:05.475Z,6.03
2019-02-26T01:12:09.140Z,5.60
2019-02-26T01:14:43.588Z,6.97
2019-02-26T01:17:16.970Z,6.65
2019-02-26T01:19:49.330Z,7.15
2019-02-26T01:22:21.094Z,6.70
2019-02-26T01:24:54.210Z,6.30
2019-02-26T01:27:26.779Z,6.50
2019-02-26T01:30:00.408Z,6.60
2019-02-26T01:35:05.488Z,6.12
2019-02-26T01:37:36.822Z,6.97
2019-02-26T01:40:13.731Z,5.90
2019-02-26T01:42:47.547Z,6.70
2019-02-26T01:45:19.615Z,7.08
2019-02-26T01:47:52.800Z,6.47
2019-02-26T01:50:24.788Z,7.12
2019-02-26T01:52:58.519Z,6.20
2019-02-26T01:55:29.808Z,6.35
2019-02-26T01:58:01.602Z,6.93
2019-02-26T02:00:33.344Z,6.70
2019-02-26T02:03:04.881Z,6.62
2019-02-26T02:05:36.414Z,7.28
2019-02-26T02:08:11.039Z,6.15
2019-02-26T02:10:41.816Z,6.60
2019-02-26T02:13:13.781Z,6.62
2019-02-26T02:18:20.560Z,6.28
2019-02-26T02:20:51.814Z,6.62
2019-02-26T02:23:25.687Z,7.20
2019-02-26T02:25:59.948Z,6.17
2019-02-26T02:28:31.485Z,6.80
2019-02-26T02:31:04.469Z,6.47
2019-02-26T02:33:37.462Z,6.33
2019-02-26T02:36:11.535Z,6.05
2019-02-26T02:38:42.586Z,6.25
2019-02-26T02:41:14.318Z,6.50
2019-02-26T02:43:45.879Z,6.42
2019-02-26T02:46:17.834Z,6.60
2019-02-26T02:48:49.505Z,6.45
2019-02-26T02:51:21.847Z,6.12
2019-02-26T02:53:56.463Z,6.87
2019-02-26T02:56:27.343Z,7.58
2019-02-26T02:58:58.905Z,7.25
2019-02-26T03:01:30.805Z,6.70
2019-02-26T03:06:35.352Z,6.25
2019-02-26T03:09:15.256Z,6.58
2019-02-26T03:11:47.141Z,6.25
2019-02-26T03:14:20.013Z,6.65
2019-02-26T03:16:53.479Z,7.25
2019-02-26T03:19:25.810Z,7.08
2019-02-26T03:21:57.835Z,6.87
2019-02-26T03:24:31.390Z,6.75
2019-02-26T03:27:03.470Z,7.22
2019-02-26T03:29:35.295Z,6.65
2019-02-26T03:32:07.108Z,6.42
2019-02-26T03:34:38.808Z,6.40
2019-02-26T03:39:43.313Z,6.40
2019-02-26T03:42:16.684Z,6.95
2019-02-26T03:44:48.371Z,7.85
2019-02-26T03:47:20.416Z,7.03
2019-02-26T03:49:52.374Z,6.62
2019-02-26T03:52:24.637Z,6.95
2019-02-26T03:54:56.810Z,6.20
2019-02-26T03:57:28.538Z,6.33
2019-02-26T04:00:00.342Z,7.37
2019-02-26T04:02:32.330Z,6.97
2019-02-26T04:05:06.893Z,6.72
2019-02-26T04:07:37.435Z,6.83
2019-02-26T04:10:09.438Z,6.72
2019-02-26T04:12:42.264Z,6.83
2019-02-26T04:15:16.792Z,6.50
2019-02-26T04:20:19.836Z,6.45
2019-02-26T04:22:53.332Z,6.90
2019-02-26T04:26:06.372Z,6.60
2019-02-26T04:29:09.434Z,6.72
2019-02-26T04:32:52.764Z,6.42
2019-02-26T04:35:55.515Z,6.37
2019-02-26T04:39:27.754Z,6.10
2019-02-26T04:46:28.878Z,6.40
2019-02-26T04:49:00.405Z,5.67
2019-02-26T04:51:36.090Z,6.10
2019-02-26T04:54:05.805Z,6.50
2019-02-26T04:56:40.129Z,6.22
2019-02-26T04:59:12.537Z,6.25
2019-02-26T05:01:47.246Z,5.90
2019-02-26T05:04:18.316Z,6.37
2019-02-26T05:06:50.537Z,6.62
2019-02-26T05:09:24.719Z,5.92
2019-02-26T05:11:56.434Z,6.60
2019-02-26T05:14:28.432Z,6.37
2019-02-26T05:17:00.049Z,6.35
2019-02-26T05:19:31.783Z,6.78
2019-02-26T05:24:38.666Z,6.47
2019-02-26T05:27:18.725Z,5.97
2019-02-26T05:29:52.527Z,6.08
2019-02-26T05:32:26.949Z,6.50
2019-02-26T05:34:57.331Z,5.95
2019-02-26T05:37:31.747Z,5.72
2019-02-26T05:40:02.819Z,6.17
2019-02-26T05:42:35.352Z,6.08
2019-02-26T05:45:09.375Z,5.97
2019-02-26T05:47:43.113Z,6.28
2019-02-26T05:50:16.723Z,6.55
2019-02-26T05:52:50.266Z,6.00
2019-02-26T05:55:23.711Z,6.67
2019-02-26T05:57:55.779Z,5.80
2019-02-26T06:03:00.794Z,5.95
2019-02-26T06:08:03.306Z,6.37
2019-02-26T06:10:34.798Z,6.10
2019-02-26T06:13:07.591Z,5.65
2019-02-26T06:15:40.638Z,5.78
2019-02-26T06:18:12.394Z,5.60
2019-02-26T06:20:45.780Z,6.40
2019-02-26T06:25:48.310Z,6.40
2019-02-26T06:28:20.537Z,5.85
2019-02-26T06:33:11.602Z,5.93
2019-02-26T06:35:43.270Z,6.35
2019-02-26T06:38:14.827Z,5.95
2019-02-26T06:40:48.940Z,6.67
2019-02-26T06:43:21.022Z,6.20
2019-02-26T06:45:52.743Z,5.50
2019-02-26T06:50:57.619Z,6.15
2019-02-26T06:53:30.584Z,5.97
2019-02-26T06:56:02.306Z,5.83
2019-02-26T06:58:35.786Z,6.28
2019-02-26T07:01:09.562Z,5.83
2019-02-26T07:03:41.786Z,6.47
2019-02-26T07:06:13.801Z,5.80
2019-02-26T07:08:47.205Z,5.65
2019-02-26T07:11:18.782Z,5.75
2019-02-26T07:16:21.611Z,5.70
2019-02-26T07:18:53.375Z,6.45
2019-02-26T07:21:25.292Z,6.15
2019-02-26T07:23:58.638Z,6.08
2019-02-26T07:26:30.634Z,6.30
2019-02-26T07:29:03.445Z,6.10
2019-02-26T07:31:36.285Z,5.70
2019-02-26T07:34:07.887Z,6.17
2019-02-26T07:36:41.158Z,6.10
2019-02-26T07:39:15.506Z,6.05
2019-02-26T07:41:49.228Z,5.90
2019-02-26T07:44:21.717Z,5.53
2019-02-26T07:46:54.310Z,6.12
2019-02-26T07:49:25.892Z,5.90
2019-02-26T07:51:58.315Z,6.15
2019-02-26T07:54:31.316Z,5.65
2019-02-26T07:57:03.406Z,5.53
2019-02-26T07:59:36.926Z,5.53
2019-02-26T08:02:09.588Z,5.42
2019-02-26T08:04:43.623Z,5.92
2019-02-26T08:07:15.609Z,5.62
2019-02-26T08:09:47.365Z,5.70
2019-02-26T08:12:19.307Z,5.75
2019-02-26T08:14:58.405Z,5.40
2019-02-26T08:17:30.309Z,5.65
2019-02-26T08:20:04.424Z,5.42
2019-02-26T08:22:36.304Z,5.60
2019-02-26T08:25:08.765Z,5.80
2019-02-26T08:30:18.793Z,5.20
2019-02-26T08:32:53.553Z,4.70
2019-02-26T08:35:23.297Z,4.50
2019-02-26T08:37:55.295Z,4.60
2019-02-26T08:40:27.018Z,4.92
2019-02-26T08:42:58.771Z,5.00
2019-02-26T08:48:02.905Z,4.95
2019-02-26T08:50:36.197Z,4.65
2019-02-26T08:53:07.771Z,4.45
2019-02-26T08:55:39.315Z,4.90
2019-02-26T08:58:12.538Z,4.90
2019-02-26T09:03:16.061Z,4.08
2019-02-26T09:05:49.427Z,4.20
2019-02-26T09:08:22.265Z,4.35
2019-02-26T09:10:54.365Z,3.95
2019-02-26T09:13:26.021Z,3.80
2019-02-26T09:15:58.788Z,4.05
2019-02-26T09:18:35.508Z,5.15
2019-02-26T09:21:06.998Z,4.50
2019-02-26T09:23:38.370Z,5.08
2019-02-26T09:26:10.750Z,5.25
2019-02-26T09:31:14.188Z,4.90
2019-02-26T09:33:45.865Z,5.72
2019-02-26T09:36:20.505Z,5.55
2019-02-26T09:38:51.440Z,6.08
2019-02-26T09:41:23.312Z,5.22
2019-02-26T09:43:55.286Z,5.65
2019-02-26T09:46:27.058Z,3.92
2019-02-26T09:49:00.916Z,4.75
2019-02-26T09:51:33.012Z,5.08
2019-02-26T09:54:05.802Z,5.12
2019-02-26T09:56:37.710Z,4.80
2019-02-26T10:01:42.827Z,5.65
2019-02-26T10:04:14.758Z,4.90
2019-02-26T10:09:20.721Z,3.92
2019-02-26T10:11:52.755Z,5.80
2019-02-26T10:16:57.000Z,4.35
2019-02-26T10:19:30.946Z,4.67
2019-02-26T10:22:03.545Z,5.50
2019-02-26T10:24:39.714Z,6.45
2019-02-26T10:27:11.472Z,6.20
2019-02-26T10:29:45.105Z,4.62
2019-02-26T10:32:16.306Z,4.20
2019-02-26T10:34:47.960Z,6.08
2019-02-26T10:37:20.463Z,5.40
2019-02-26T10:39:54.923Z,4.65
2019-02-26T10:42:25.798Z,5.15
2019-02-26T10:44:57.723Z,5.65
2019-02-26T10:50:02.107Z,5.22
2019-02-26T10:52:33.798Z,4.95
2019-02-26T10:55:05.723Z,6.67
2019-02-26T11:00:22.681Z,5.62
2019-02-26T11:02:54.441Z,3.85
2019-02-26T11:05:26.778Z,3.85
2019-02-26T11:08:01.882Z,5.67
2019-02-26T11:10:32.293Z,5.10
2019-02-26T11:13:03.985Z,5.20
2019-02-26T11:15:36.059Z,5.05
2019-02-26T11:18:08.237Z,4.17
2019-02-26T11:20:41.304Z,4.60
2019-02-26T11:23:14.271Z,5.00
2019-02-26T11:25:46.600Z,4.50
2019-02-26T11:28:18.427Z,4.12
2019-02-26T11:30:52.164Z,3.75
2019-02-26T11:33:23.744Z,4.17
2019-02-26T11:35:55.618Z,4.95
2019-02-26T11:38:27.378Z,5.42
2019-02-26T11:40:59.416Z,4.03
2019-02-26T11:43:31.070Z,4.65
2019-02-26T11:46:03.923Z,4.00
2019-02-26T11:48:36.308Z,5.00
2019-02-26T11:51:07.768Z,3.90
2019-02-26T11:53:39.779Z,4.00
2019-02-26T11:58:42.435Z,4.08
2019-02-26T12:01:16.374Z,3.80
2019-02-26T12:03:48.367Z,4.50
2019-02-26T12:06:20.064Z,5.83
2019-02-26T12:08:51.799Z,5.42
2019-02-26T12:11:23.757Z,4.95
2019-02-26T12:13:55.331Z,5.20
2019-02-26T12:16:28.493Z,5.12
2019-02-26T12:19:01.353Z,3.87
2019-02-26T12:21:34.592Z,4.78
2019-02-26T12:24:09.110Z,4.37
2019-02-26T12:26:42.330Z,4.75
2019-02-26T12:29:16.149Z,5.03
2019-02-26T12:31:50.110Z,5.65
2019-02-26T12:34:23.694Z,4.60
2019-02-26T12:36:57.207Z,5.35
2019-02-26T12:39:31.305Z,3.98
2019-02-26T12:42:02.283Z,4.08
2019-02-26T12:44:37.448Z,3.90
2019-02-26T12:47:07.425Z,3.72
2019-02-26T12:49:42.220Z,5.20
2019-02-26T12:52:14.952Z,4.45
2019-02-26T12:54:46.384Z,5.58
2019-02-26T12:57:19.805Z,4.87
2019-02-26T12:59:51.804Z,4.30
2019-02-26T13:04:55.942Z,3.33
2019-02-26T13:07:27.782Z,4.25
2019-02-26T13:12:32.612Z,4.28
2019-02-26T13:15:06.491Z,3.98
2019-02-26T13:17:38.070Z,3.55
2019-02-26T13:20:14.791Z,4.95
2019-02-26T13:25:21.429Z,5.15
2019-02-26T13:27:51.739Z,5.00
2019-02-26T13:35:28.834Z,5.10
2019-02-26T13:38:00.787Z,4.72
2019-02-26T13:45:36.732Z,5.20
2019-02-26T13:50:39.823Z,5.28
2019-02-26T13:53:11.826Z,4.90
2019-02-26T13:55:43.414Z,5.12
2019-02-26T13:58:15.061Z,3.40
2019-02-26T14:00:46.757Z,4.60
2019-02-26T14:03:18.705Z,5.47
2019-02-26T14:05:50.395Z,5.40
2019-02-26T14:08:23.290Z,4.35
2019-02-26T14:10:54.816Z,2.98
2019-02-26T14:13:27.297Z,3.30
2019-02-26T14:15:58.773Z,4.83
2019-02-26T14:18:30.461Z,3.70
2019-02-26T14:21:02.305Z,4.42
2019-02-26T14:23:35.098Z,4.20
2019-02-26T14:26:07.772Z,4.90
2019-02-26T14:31:10.319Z,3.05
2019-02-26T14:33:42.401Z,4.40
2019-02-26T14:36:14.051Z,5.05
2019-02-26T14:38:46.308Z,3.52
2019-02-26T14:41:18.070Z,4.37
2019-02-26T14:43:49.755Z,3.95
2019-02-26T14:48:52.308Z,4.10
2019-02-26T14:51:23.843Z,3.90
2019-02-26T14:53:55.748Z,3.02
2019-02-26T14:56:34.302Z,4.00
2019-02-26T14:59:11.416Z,4.50
2019-02-26T15:04:14.682Z,4.15
2019-02-26T15:06:46.396Z,5.20
2019-02-26T15:09:18.315Z,5.75
2019-02-26T15:14:21.310Z,7.30
2019-02-26T15:16:52.956Z,7.47
2019-02-26T15:19:24.755Z,7.55
2019-02-26T15:21:57.295Z,7.67
2019-02-26T15:24:29.655Z,8.50
2019-02-26T15:27:01.775Z,7.28
2019-02-26T15:29:33.790Z,7.92
2019-02-26T15:32:05.869Z,7.12
2019-02-26T15:34:37.435Z,6.12
2019-02-26T15:37:09.305Z,7.67
2019-02-26T15:39:40.910Z,8.68
2019-02-26T15:42:12.977Z,7.28
2019-02-26T15:44:45.320Z,7.20
2019-02-26T15:47:17.060Z,5.40
2019-02-26T15:49:48.767Z,8.78
2019-02-26T15:52:22.274Z,8.80
2019-02-26T15:54:57.507Z,8.73
2019-02-26T15:57:28.573Z,9.30
2019-02-26T16:00:01.350Z,10.85
2019-02-26T16:02:33.426Z,10.63
2019-02-26T16:05:05.310Z,11.60
2019-02-26T16:07:36.844Z,9.83
2019-02-26T16:10:10.313Z,10.80
2019-02-26T16:12:42.674Z,10.50
2019-02-26T16:17:46.024Z,10.72
2019-02-26T16:20:20.060Z,10.68
2019-02-26T16:22:51.782Z,10.32
2019-02-26T16:25:23.420Z,10.80
2019-02-26T16:27:55.769Z,9.50
2019-02-26T16:32:58.778Z,11.40
2019-02-26T16:35:30.770Z,10.30
2019-02-26T16:40:34.014Z,10.03
2019-02-26T16:43:06.594Z,11.00
2019-02-26T16:45:38.622Z,10.43
2019-02-26T16:48:10.604Z,10.53
2019-02-26T16:50:45.574Z,9.70
2019-02-26T16:53:17.804Z,10.48
2019-02-26T16:55:49.780Z,9.70
2019-02-26T16:58:21.427Z,8.33
2019-02-26T17:00:53.298Z,7.33
2019-02-26T17:03:24.854Z,9.55
2019-02-26T17:05:56.737Z,6.25
2019-02-26T17:10:59.425Z,6.55
2019-02-26T17:13:31.406Z,4.35
2019-02-26T17:16:03.312Z,3.77
2019-02-26T17:18:35.561Z,4.03
2019-02-26T17:21:07.306Z,3.83
2019-02-26T17:23:39.302Z,4.75
2019-02-26T17:26:11.567Z,4.62
2019-02-26T17:28:44.266Z,6.87
2019-02-26T17:31:16.077Z,8.98
2019-02-26T17:33:48.263Z,10.55
2019-02-26T17:36:19.881Z,12.50
2019-02-26T17:38:52.252Z,11.60
2019-02-26T17:41:24.048Z,11.33
2019-02-26T17:43:56.841Z,11.60
2019-02-26T17:46:29.310Z,10.63
2019-02-26T17:49:02.851Z,10.53
2019-02-26T17:51:35.311Z,11.97
2019-02-26T17:54:07.795Z,10.05
2019-02-26T17:56:41.749Z,11.30
2019-02-26T18:01:46.292Z,11.85
2019-02-26T18:04:17.813Z,13.03
2019-02-26T18:06:49.598Z,12.25
2019-02-26T18:09:21.732Z,11.20
2019-02-26T18:14:24.375Z,11.30
2019-02-26T18:16:56.337Z,11.88
2019-02-26T18:19:27.902Z,11.53
2019-02-26T18:21:59.737Z,12.40
2019-02-26T18:27:03.124Z,13.22
2019-02-26T18:29:35.301Z,12.13
2019-02-26T18:32:10.804Z,12.37
2019-02-26T18:34:40.780Z,12.43
2019-02-26T18:39:43.866Z,11.83
2019-02-26T18:42:15.746Z,11.50
2019-02-26T18:47:18.366Z,9.98
2019-02-26T18:49:52.799Z,10.23
2019-02-26T18:52:24.397Z,9.20
2019-02-26T18:54:56.265Z,10.05
2019-02-26T18:57:28.784Z,8.30
2019-02-26T19:00:00.856Z,9.10
2019-02-26T19:02:33.540Z,10.93
2019-02-26T19:05:06.815Z,11.10
2019-02-26T19:07:38.741Z,12.15
2019-02-26T19:12:44.307Z,12.88
2019-02-26T19:15:17.812Z,13.05
2019-02-26T19:17:53.018Z,12.70
2019-02-26T19:20:28.798Z,13.60
2019-02-26T19:23:02.084Z,13.28
2019-02-26T19:25:34.053Z,13.45
2019-02-26T19:28:05.814Z,12.50
2019-02-26T19:30:37.579Z,12.18
2019-02-26T19:33:08.636Z,11.10
2019-02-26T19:38:12.509Z,10.50
2019-02-26T19:40:45.057Z,9.38
2019-02-26T19:43:16.742Z,8.78
2019-02-26T19:48:19.594Z,9.20
2019-02-26T19:50:50.645Z,11.33
2019-02-26T19:53:21.928Z,11.00
2019-02-26T19:55:53.842Z,11.40
2019-02-26T19:58:25.753Z,11.50
2019-02-26T20:03:39.282Z,9.55
2019-02-26T20:06:01.746Z,7.42
2019-02-26T20:11:03.701Z,4.87
2019-02-26T20:18:37.292Z,5.33
2019-02-26T20:21:08.852Z,6.80
2019-02-26T20:23:41.971Z,6.37
2019-02-26T20:26:16.483Z,6.40
2019-02-26T20:28:47.887Z,5.83
2019-02-26T20:31:21.722Z,6.12
2019-02-26T20:33:53.254Z,5.85
2019-02-26T20:36:24.938Z,4.75
2019-02-26T20:38:56.771Z,6.17
2019-02-26T20:41:28.373Z,5.70
2019-02-26T20:44:00.298Z,6.78
2019-02-26T20:46:32.040Z,5.70
2019-02-26T20:49:04.360Z,5.42
2019-02-26T20:51:36.319Z,4.83
2019-02-26T20:54:11.402Z,5.70
2019-02-26T20:56:41.725Z,5.83
2019-02-26T21:01:44.302Z,4.97
2019-02-26T21:04:16.298Z,6.75
2019-02-26T21:06:50.420Z,5.85
2019-02-26T21:09:21.753Z,6.28
2019-02-26T21:14:26.267Z,5.70
2019-02-26T21:16:58.329Z,6.75
2019-02-26T21:19:30.747Z,6.60
2019-02-26T21:24:34.635Z,5.30
2019-02-26T21:27:06.778Z,6.03
2019-02-26T21:29:39.671Z,6.15
2019-02-26T21:32:12.310Z,7.00
2019-02-26T21:34:47.372Z,5.85
2019-02-26T21:37:17.915Z,7.60
2019-02-26T21:39:49.778Z,5.50
2019-02-26T21:42:21.407Z,6.20
2019-02-26T21:44:53.315Z,5.85
2019-02-26T21:47:25.308Z,6.78
2019-02-26T21:49:57.314Z,6.55
2019-02-26T21:54:00.765Z,6.90
2019-02-26T21:56:33.165Z,6.50
2019-02-26T21:59:05.456Z,7.90
2019-02-26T22:01:37.828Z,4.67
2019-02-26T22:04:09.918Z,6.53
2019-02-26T22:06:44.473Z,7.67
2019-02-26T22:09:15.847Z,7.92
2019-02-26T22:11:50.464Z,9.45
2019-02-26T22:14:22.402Z,7.37
2019-02-26T22:16:57.045Z,6.80
2019-02-26T22:19:30.843Z,8.53
2019-02-26T22:22:03.367Z,8.48
2019-02-26T22:24:37.800Z,7.45
2019-02-26T22:27:11.103Z,6.97
2019-02-26T22:29:47.967Z,6.22
2019-02-26T22:32:18.937Z,9.58
2019-02-26T22:34:53.573Z,5.92
2019-02-26T22:37:25.689Z,7.08
2019-02-26T22:39:58.609Z,8.40
2019-02-26T22:42:31.027Z,6.83
2019-02-26T22:45:04.359Z,6.55
2019-02-26T22:47:40.230Z,6.30
2019-02-26T22:50:13.429Z,7.10
2019-02-26T22:52:45.888Z,6.70
2019-02-26T22:55:18.030Z,6.45
2019-02-26T22:57:50.498Z,7.47
2019-02-26T23:01:30.764Z,7.35
2019-02-26T23:04:03.916Z,5.90
2019-02-26T23:06:36.048Z,6.85
2019-02-26T23:09:12.865Z,7.12
2019-02-26T23:11:45.184Z,8.28
2019-02-26T23:14:17.874Z,6.53
2019-02-26T23:16:52.042Z,6.45
2019-02-26T23:19:25.097Z,6.22
2019-02-26T23:21:59.499Z,6.10
2019-02-26T23:24:32.343Z,6.42
2019-02-26T23:27:05.083Z,5.92
2019-02-26T23:29:37.375Z,6.08
2019-02-26T23:32:10.353Z,6.45
2019-02-26T23:34:42.897Z,6.35
2019-02-26T23:37:15.322Z,6.85
2019-02-26T23:39:47.890Z,6.35
2019-02-26T23:42:20.110Z,7.40
2019-02-26T23:44:52.916Z,7.03
2019-02-26T23:47:25.292Z,6.08
2019-02-26T23:49:57.962Z,6.00
2019-02-26T23:52:29.902Z,6.28
2019-02-26T23:55:02.501Z,6.80
2019-02-26T23:57:34.856Z,6.08
